Time;durP1;ratioP1;P1;durP2;ratioP2;P2;SDS_P1;SDS_P2;PMS_P1;PMS_P2;Temp;Humidity;BMP_temperature;BMP_pressure;BME280_temperature;BME280_humidity;BME280_pressure;Samples;Min_cycle;Max_cycle;Signal;HPM_P1;HPM_P2
2022/08/20 00:00:48;;;;;;;;;;;;;;;;;;5042062;28;20285;-59
2022/08/20 00:03:14;;;;;;;;;;;;;;;;;;5041812;28;20375;-59
2022/08/20 00:05:40;;;;;;;;;;;;;;;;;;5042297;28;20055;-60
2022/08/20 00:08:06;;;;;;;;;;;;;;;;;;5039130;28;19920;-59
2022/08/20 00:10:32;;;;;;;;;;;;;;;;;;5022306;28;19925;-59
2022/08/20 00:12:59;;;;;;;;;;;;;;;;;;5023007;28;19936;-59
2022/08/20 00:15:25;;;;;;;;;;;;;;;;;;5027363;28;20011;-59
2022/08/20 00:17:50;;;;;;;;;;;;;;;;;;5038791;28;20139;-59
2022/08/20 00:20:16;;;;;;;;;;;;;;;;;;5026444;28;20312;-59
2022/08/20 00:22:43;;;;;;;;;;;;;;;;;;5041420;28;20668;-59
2022/08/20 00:25:08;;;;;;;;;;;;;;;;;;5026901;28;19929;-62
2022/08/20 00:27:34;;;;;;;;;;;;;;;;;;5038678;28;19932;-60
2022/08/20 00:30:00;;;;;;;;;;;;;;;;;;5026411;28;20286;-59
2022/08/20 00:32:26;;;;;;;;;;;;;;;;;;5027349;28;19971;-59
2022/08/20 00:34:52;;;;;;;;;;;;;;;;;;5026305;28;19969;-59
2022/08/20 00:37:18;;;;;;;;;;;;;;;;;;5025750;28;19925;-59
2022/08/20 00:39:44;;;;;;;;;;;;;;;;;;5026171;28;19933;-59
2022/08/20 00:42:10;;;;;;;;;;;;;;;;;;5035033;28;19948;-60
2022/08/20 00:44:36;;;;;;;;;;;;;;;;;;5029376;28;20569;-59
2022/08/20 00:47:03;;;;;;;;;;;;;;;;;;5026469;28;19971;-59
2022/08/20 00:49:29;;;;;;;;;;;;;;;;;;5027015;28;19937;-59
2022/08/20 00:51:56;;;;;;;;;;;;;;;;;;5033642;28;20371;-59
2022/08/20 00:54:22;;;;;;;;;;;;;;;;;;5028451;28;19971;-59
2022/08/20 00:56:48;;;;;;;;;;;;;;;;;;5025794;28;19925;-59
2022/08/20 00:59:14;;;;;;;;;;;;;;;;;;5028412;28;19925;-59
2022/08/20 01:01:40;;;;;;;;;;;;;;;;;;5040364;28;19972;-59
2022/08/20 01:04:06;;;;;;;;;;;;;;;;;;5021097;23;20024;-59
2022/08/20 01:06:32;;;;;;;;;;;;;;;;;;5005380;28;20041;-59
2022/08/20 01:09:00;;;;;;;;;;;;;;;;;;5005096;28;20401;-59
2022/08/20 01:11:34;;;;;;;;;;;;;;;;;;5005369;28;19933;-59
2022/08/20 01:14:02;;;;;;;;;;;;;;;;;;5005510;28;19925;-59
2022/08/20 01:16:29;;;;;;;;;;;;;;;;;;5005226;28;19984;-59
2022/08/20 01:18:56;;;;;;;;;;;;;;;;;;5005342;28;19926;-59
2022/08/20 01:21:25;;;;;;;;;;;;;;;;;;5005035;28;20090;-59
2022/08/20 01:23:51;;;;;;;;;;;;;;;;;;5004462;28;19929;-59
2022/08/20 01:26:17;;;;;;;;;;;;;;;;;;5004504;28;19926;-59
2022/08/20 01:28:43;;;;;;;;;;;;;;;;;;5004203;28;19929;-59
2022/08/20 01:31:09;;;;;;;;;;;;;;;;;;5004781;28;19925;-60
2022/08/20 01:33:35;;;;;;;;;;;;;;;;;;5005196;28;19933;-59
2022/08/20 01:36:01;;;;;;;;;;;;;;;;;;5004950;28;19926;-59
2022/08/20 01:38:27;;;;;;;;;;;;;;;;;;5003774;28;20291;-59
2022/08/20 01:40:53;;;;;;;;;;;;;;;;;;5004707;28;19925;-59
2022/08/20 01:43:19;;;;;;;;;;;;;;;;;;5004552;28;20315;-59
2022/08/20 01:45:45;;;;;;;;;;;;;;;;;;5004520;28;19925;-59
2022/08/20 01:48:11;;;;;;;;;;;;;;;;;;5004858;28;19925;-59
2022/08/20 01:50:37;;;;;;;;;;;;;;;;;;5004668;28;20390;-59
2022/08/20 01:53:03;;;;;;;;;;;;;;;;;;5002471;28;19979;-59
2022/08/20 01:55:29;;;;;;;;;;;;;;;;;;5004341;28;19933;-59
2022/08/20 01:57:55;;;;;;;;;;;;;;;;;;5004682;28;19926;-59
2022/08/20 02:00:21;;;;;;;;;;;;;;;;;;5004560;28;19932;-59
2022/08/20 02:02:48;;;;;;;;;;;;;;;;;;5003614;28;20511;-59
2022/08/20 02:05:14;;;;;;;;;;;;;;;;;;5003794;28;19976;-59
2022/08/20 02:07:40;;;;;;;;;;;;;;;;;;5003353;28;19964;-59
2022/08/20 02:10:06;;;;;;;;;;;;;;;;;;5004917;28;19926;-59
2022/08/20 02:12:32;;;;;;;;;;;;;;;;;;5004270;28;19939;-59
2022/08/20 02:14:58;;;;;;;;;;;;;;;;;;5004242;28;19933;-59
2022/08/20 02:17:24;;;;;;;;;;;;;;;;;;5003915;28;19925;-59
2022/08/20 02:19:50;;;;;;;;;;;;;;;;;;5004423;28;19929;-59
2022/08/20 02:22:17;;;;;;;;;;;;;;;;;;5003066;28;19926;-59
2022/08/20 02:24:43;;;;;;;;;;;;;;;;;;5004285;28;19973;-59
2022/08/20 02:27:09;;;;;;;;;;;;;;;;;;5003683;28;19926;-62
2022/08/20 02:29:35;;;;;;;;;;;;;;;;;;5004424;28;19995;-59
2022/08/20 02:32:01;;;;;;;;;;;;;;;;;;5004198;28;19930;-59
2022/08/20 02:34:27;;;;;;;;;;;;;;;;;;5004152;28;19979;-59
2022/08/20 02:36:53;;;;;;;;;;;;;;;;;;5002934;28;19930;-59
2022/08/20 02:39:19;;;;;;;;;;;;;;;;;;5003409;28;19925;-59
2022/08/20 02:41:46;;;;;;;;;;;;;;;;;;5003036;28;19948;-59
2022/08/20 02:44:12;;;;;;;;;;;;;;;;;;5003522;28;20584;-59
2022/08/20 02:46:38;;;;;;;;;;;;;;;;;;5003526;28;19925;-59
2022/08/20 02:49:04;;;;;;;;;;;;;;;;;;5003939;28;20346;-59
2022/08/20 02:51:30;;;;;;;;;;;;;;;;;;4984856;28;20628;-59
2022/08/20 02:53:56;;;;;;;;;;;;;;;;;;5003753;28;19933;-59
2022/08/20 02:56:22;;;;;;;;;;;;;;;;;;5003769;28;19932;-59
2022/08/20 02:58:48;;;;;;;;;;;;;;;;;;5003793;28;19925;-59
2022/08/20 03:01:14;;;;;;;;;;;;;;;;;;5003271;28;20006;-59
2022/08/20 03:03:40;;;;;;;;;;;;;;;;;;5003210;28;20381;-60
2022/08/20 03:06:06;;;;;;;;;;;;;;;;;;5003748;28;19929;-59
2022/08/20 03:08:33;;;;;;;;;;;;;;;;;;5002705;28;19928;-59
2022/08/20 03:10:59;;;;;;;;;;;;;;;;;;5003441;28;20217;-59
2022/08/20 03:13:25;;;;;;;;;;;;;;;;;;5003064;28;19929;-59
2022/08/20 03:15:51;;;;;;;;;;;;;;;;;;5003251;28;19917;-59
2022/08/20 03:18:17;;;;;;;;;;;;;;;;;;5003335;28;19926;-59
2022/08/20 03:20:43;;;;;;;;;;;;;;;;;;5003541;28;19921;-59
2022/08/20 03:23:09;;;;;;;;;;;;;;;;;;5002689;28;19948;-62
2022/08/20 03:25:35;;;;;;;;;;;;;;;;;;5003513;28;20596;-59
2022/08/20 03:28:01;;;;;;;;;;;;;;;;;;5002900;28;19941;-59
2022/08/20 03:30:27;;;;;;;;;;;;;;;;;;5002962;28;19926;-59
2022/08/20 03:32:53;;;;;;;;;;;;;;;;;;5003369;28;19944;-59
2022/08/20 03:35:19;;;;;;;;;;;;;;;;;;5003213;28;20028;-59
2022/08/20 03:37:45;;;;;;;;;;;;;;;;;;5002457;28;19996;-59
2022/08/20 03:40:11;;;;;;;;;;;;;;;;;;5002820;28;19925;-59
2022/08/20 03:42:38;;;;;;;;;;;;;;;;;;5003775;28;19933;-59
2022/08/20 03:45:04;;;;;;;;;;;;;;;;;;5003433;28;19977;-59
2022/08/20 03:47:30;;;;;;;;;;;;;;;;;;5002593;28;19967;-59
2022/08/20 03:49:56;;;;;;;;;;;;;;;;;;4985845;28;19925;-59
2022/08/20 03:52:22;;;;;;;;;;;;;;;;;;5002843;28;19933;-59
2022/08/20 03:54:48;;;;;;;;;;;;;;;;;;4989508;28;20450;-59
2022/08/20 03:57:14;;;;;;;;;;;;;;;;;;5006671;28;19945;-59
2022/08/20 03:59:40;;;;;;;;;;;;;;;;;;5006733;28;19925;-59
2022/08/20 04:02:06;;;;;;;;;;;;;;;;;;5006801;28;19968;-59
2022/08/20 04:04:32;;;;;;;;;;;;;;;;;;5005825;28;19976;-59
2022/08/20 04:06:58;;;;;;;;;;;;;;;;;;5005664;28;20770;-59
2022/08/20 04:09:24;;;;;;;;;;;;;;;;;;5006189;28;19933;-59
2022/08/20 04:11:52;;;;;;;;;;;;;;;;;;5006719;28;19925;-59
2022/08/20 04:14:19;;;;;;;;;;;;;;;;;;5006220;28;20020;-59
2022/08/20 04:16:45;;;;;;;;;;;;;;;;;;5006335;28;20076;-59
2022/08/20 04:19:11;;;;;;;;;;;;;;;;;;5006589;28;19929;-59
2022/08/20 04:21:37;;;;;;;;;;;;;;;;;;5005552;28;20425;-59
2022/08/20 04:24:03;;;;;;;;;;;;;;;;;;5006341;28;19925;-59
2022/08/20 04:26:29;;;;;;;;;;;;;;;;;;5006057;28;19929;-59
2022/08/20 04:28:55;;;;;;;;;;;;;;;;;;5006225;28;20307;-59
2022/08/20 04:31:23;;;;;;;;;;;;;;;;;;5005910;28;20379;-59
2022/08/20 04:33:49;;;;;;;;;;;;;;;;;;5006446;28;19926;-59
2022/08/20 04:36:15;;;;;;;;;;;;;;;;;;5005187;28;20434;-59
2022/08/20 04:38:41;;;;;;;;;;;;;;;;;;5006209;28;20023;-59
2022/08/20 04:41:07;;;;;;;;;;;;;;;;;;5006232;28;20389;-59
2022/08/20 04:43:33;;;;;;;;;;;;;;;;;;5005640;28;19945;-59
2022/08/20 04:46:00;;;;;;;;;;;;;;;;;;5005602;28;19987;-59
2022/08/20 04:48:27;;;;;;;;;;;;;;;;;;5005662;28;20286;-59
2022/08/20 04:50:53;;;;;;;;;;;;;;;;;;5006044;28;19925;-59
2022/08/20 04:53:19;;;;;;;;;;;;;;;;;;5004955;28;20016;-59
2022/08/20 04:55:45;;;;;;;;;;;;;;;;;;5005640;28;20643;-59
2022/08/20 04:58:11;;;;;;;;;;;;;;;;;;5005677;28;19976;-58
2022/08/20 05:00:37;;;;;;;;;;;;;;;;;;5005512;28;19929;-59
2022/08/20 05:03:05;;;;;;;;;;;;;;;;;;5005696;28;19932;-59
2022/08/20 05:05:33;;;;;;;;;;;;;;;;;;5004386;28;20526;-59
2022/08/20 05:08:00;;;;;;;;;;;;;;;;;;5004987;28;20062;-59
2022/08/20 05:10:26;;;;;;;;;;;;;;;;;;5005134;28;19926;-59
2022/08/20 05:12:52;;;;;;;;;;;;;;;;;;5005411;28;19930;-59
2022/08/20 05:15:18;;;;;;;;;;;;;;;;;;4987760;28;19925;-59
2022/08/20 05:17:44;;;;;;;;;;;;;;;;;;5005512;28;19931;-59
2022/08/20 05:20:10;;;;;;;;;;;;;;;;;;5005005;28;19971;-59
2022/08/20 05:22:36;;;;;;;;;;;;;;;;;;5005318;28;19984;-59
2022/08/20 05:25:02;;;;;;;;;;;;;;;;;;5004802;28;20302;-59
2022/08/20 05:27:28;;;;;;;;;;;;;;;;;;5004765;28;20400;-59
2022/08/20 05:29:54;;;;;;;;;;;;;;;;;;5005067;28;19926;-59
2022/08/20 05:32:20;;;;;;;;;;;;;;;;;;5005261;28;20087;-59
2022/08/20 05:34:47;;;;;;;;;;;;;;;;;;5005107;28;19932;-59
2022/08/20 05:37:14;;;;;;;;;;;;;;;;;;5004019;28;19925;-59
2022/08/20 05:39:40;;;;;;;;;;;;;;;;;;5004994;28;19925;-60
2022/08/20 05:42:06;;;;;;;;;;;;;;;;;;5005325;28;20005;-59
2022/08/20 05:44:35;;;;;;;;;;;;;;;;;;5004207;28;19925;-59
2022/08/20 05:47:02;;;;;;;;;;;;;;;;;;5004669;28;20200;-59
2022/08/20 05:49:27;;;;;;;;;;;;;;;;;;5004507;28;20463;-59
2022/08/20 05:51:53;;;;;;;;;;;;;;;;;;5004182;28;20020;-59
2022/08/20 05:54:20;;;;;;;;;;;;;;;;;;5004485;28;19983;-59
2022/08/20 05:56:46;;;;;;;;;;;;;;;;;;5004332;28;19937;-59
2022/08/20 05:59:12;;;;;;;;;;;;;;;;;;5004071;28;20013;-59
2022/08/20 06:01:38;;;;;;;;;;;;;;;;;;5004955;28;19941;-59
2022/08/20 06:04:23;;;;;;;;;;;;;;;;;;5004343;28;19929;-59
2022/08/20 06:06:50;;;;;;;;;;;;;;;;;;5003720;28;20444;-59
2022/08/20 06:09:16;;;;;;;;;;;;;;;;;;5000932;28;20579;-59
2022/08/20 06:11:42;;;;;;;;;;;;;;;;;;5005017;28;20024;-59
2022/08/20 06:14:08;;;;;;;;;;;;;;;;;;5009701;28;19976;-60
2022/08/20 06:16:34;;;;;;;;;;;;;;;;;;5004432;28;19925;-59
2022/08/20 06:19:00;;;;;;;;;;;;;;;;;;5014398;28;19986;-59
2022/08/20 06:21:26;;;;;;;;;;;;;;;;;;5010900;28;19930;-59
2022/08/20 06:23:52;;;;;;;;;;;;;;;;;;5010205;28;19925;-59
2022/08/20 06:26:18;;;;;;;;;;;;;;;;;;5009717;28;19999;-60
2022/08/20 06:28:44;;;;;;;;;;;;;;;;;;5009596;28;19921;-60
2022/08/20 06:31:10;;;;;;;;;;;;;;;;;;5008008;28;19925;-59
2022/08/20 06:33:36;;;;;;;;;;;;;;;;;;5011260;28;19925;-59
2022/08/20 06:36:02;;;;;;;;;;;;;;;;;;5010451;28;19921;-59
2022/08/20 06:38:31;;;;;;;;;;;;;;;;;;5005209;28;20159;-59
2022/08/20 06:40:57;;;;;;;;;;;;;;;;;;5008475;28;19921;-59
2022/08/20 06:43:23;;;;;;;;;;;;;;;;;;5008558;28;20386;-58
2022/08/20 06:45:51;;;;;;;;;;;;;;;;;;5009363;28;21307;-59
2022/08/20 06:48:17;;;;;;;;;;;;;;;;;;5014442;28;20390;-59
2022/08/20 06:50:43;;;;;;;;;;;;;;;;;;5010551;28;19929;-60
2022/08/20 06:53:09;;;;;;;;;;;;;;;;;;5005961;28;19933;-60
2022/08/20 06:55:35;;;;;;;;;;;;;;;;;;5007906;28;19929;-59
2022/08/20 06:58:01;;;;;;;;;;;;;;;;;;5007938;28;19932;-59
2022/08/20 07:00:27;;;;;;;;;;;;;;;;;;5008925;28;19932;-60
2022/08/20 07:02:53;;;;;;;;;;;;;;;;;;5007090;28;19958;-59
2022/08/20 07:05:19;;;;;;;;;;;;;;;;;;4987858;28;19926;-60
2022/08/20 07:07:46;;;;;;;;;;;;;;;;;;5000824;28;19929;-60
2022/08/20 07:10:11;;;;;;;;;;;;;;;;;;5002618;28;19968;-59
2022/08/20 07:12:38;;;;;;;;;;;;;;;;;;5001707;28;19976;-59
2022/08/20 07:15:04;;;;;;;;;;;;;;;;;;4996519;28;20318;-60
2022/08/20 07:17:31;;;;;;;;;;;;;;;;;;4994702;28;19930;-60
2022/08/20 07:19:57;;;;;;;;;;;;;;;;;;4992645;28;20485;-60
2022/08/20 07:22:23;;;;;;;;;;;;;;;;;;4978300;28;19941;-59
2022/08/20 07:24:49;;;;;;;;;;;;;;;;;;5001355;28;19929;-59
2022/08/20 07:27:15;;;;;;;;;;;;;;;;;;5001332;28;19972;-60
2022/08/20 07:32:33;;;;;;;;;;;;;;;;;;5007388;28;19977;-60
2022/08/20 07:34:59;;;;;;;;;;;;;;;;;;5007906;28;19932;-59
2022/08/20 07:37:25;;;;;;;;;;;;;;;;;;5006796;28;19937;-59
2022/08/20 07:39:51;;;;;;;;;;;;;;;;;;5007474;28;19921;-59
2022/08/20 07:42:18;;;;;;;;;;;;;;;;;;5007329;28;19961;-59
2022/08/20 07:44:44;;;;;;;;;;;;;;;;;;5007533;28;19925;-60
2022/08/20 07:47:10;;;;;;;;;;;;;;;;;;5007056;28;19926;-60
2022/08/20 07:49:37;;;;;;;;;;;;;;;;;;5008129;28;20016;-59
2022/08/20 07:52:03;;;;;;;;;;;;;;;;;;5006903;28;20307;-59
2022/08/20 07:54:28;;;;;;;;;;;;;;;;;;5007369;28;19956;-59
2022/08/20 07:56:55;;;;;;;;;;;;;;;;;;5007631;28;19980;-59
2022/08/20 07:59:21;;;;;;;;;;;;;;;;;;5007264;28;19972;-60
2022/08/20 08:01:47;;;;;;;;;;;;;;;;;;5003020;28;19926;-60
2022/08/20 08:04:14;;;;;;;;;;;;;;;;;;5008027;28;19932;-59
2022/08/20 08:06:44;;;;;;;;;;;;;;;;;;5006023;28;19933;-60
2022/08/20 08:09:10;;;;;;;;;;;;;;;;;;5005945;28;20590;-60
2022/08/20 08:11:36;;;;;;;;;;;;;;;;;;5006333;28;20056;-59
2022/08/20 08:14:02;;;;;;;;;;;;;;;;;;5007291;28;20455;-59
2022/08/20 08:16:31;;;;;;;;;;;;;;;;;;5006798;28;20012;-59
2022/08/20 08:18:57;;;;;;;;;;;;;;;;;;5007386;28;19932;-59
2022/08/20 08:21:23;;;;;;;;;;;;;;;;;;5005524;28;19926;-59
2022/08/20 08:23:49;;;;;;;;;;;;;;;;;;5006598;28;19925;-59
2022/08/20 08:26:15;;;;;;;;;;;;;;;;;;5006330;28;19945;-59
2022/08/20 08:28:43;;;;;;;;;;;;;;;;;;5006661;28;19929;-59
2022/08/20 08:31:09;;;;;;;;;;;;;;;;;;5006702;28;19979;-61
2022/08/20 08:33:35;;;;;;;;;;;;;;;;;;5006717;28;19925;-59
2022/08/20 08:36:02;;;;;;;;;;;;;;;;;;5005687;28;19936;-57
2022/08/20 08:38:28;;;;;;;;;;;;;;;;;;5005494;28;20406;-58
2022/08/20 08:40:54;;;;;;;;;;;;;;;;;;5005440;28;19926;-58
2022/08/20 08:43:20;;;;;;;;;;;;;;;;;;5005758;28;20280;-60
2022/08/20 08:45:47;;;;;;;;;;;;;;;;;;5006295;28;20571;-60
2022/08/20 08:48:13;;;;;;;;;;;;;;;;;;5005966;28;19957;-61
2022/08/20 08:50:39;;;;;;;;;;;;;;;;;;5005739;28;20013;-61
2022/08/20 08:53:05;;;;;;;;;;;;;;;;;;5006143;28;19928;-60
2022/08/20 08:55:31;;;;;;;;;;;;;;;;;;5005805;28;19928;-60
2022/08/20 08:57:58;;;;;;;;;;;;;;;;;;5005584;28;19925;-60
2022/08/20 09:00:25;;;;;;;;;;;;;;;;;;5005770;28;19917;-60
2022/08/20 09:02:51;;;;;;;;;;;;;;;;;;5002662;28;19938;-60
2022/08/20 09:05:17;;;;;;;;;;;;;;;;;;5005714;28;19926;-61
2022/08/20 09:07:44;;;;;;;;;;;;;;;;;;5004916;28;20402;-60
2022/08/20 09:10:10;;;;;;;;;;;;;;;;;;5005661;28;19936;-60
2022/08/20 09:12:36;;;;;;;;;;;;;;;;;;5001827;28;19925;-60
2022/08/20 09:15:02;;;;;;;;;;;;;;;;;;5005898;28;19929;-60
2022/08/20 09:17:28;;;;;;;;;;;;;;;;;;5005620;28;20020;-60
2022/08/20 09:19:54;;;;;;;;;;;;;;;;;;5005462;28;19926;-60
2022/08/20 09:22:20;;;;;;;;;;;;;;;;;;5004086;28;19925;-60
2022/08/20 09:24:46;;;;;;;;;;;;;;;;;;5004757;28;19926;-60
2022/08/20 09:27:12;;;;;;;;;;;;;;;;;;5005009;28;19925;-60
2022/08/20 09:29:38;;;;;;;;;;;;;;;;;;5005736;28;19925;-60
2022/08/20 09:32:04;;;;;;;;;;;;;;;;;;5005087;28;19972;-60
2022/08/20 09:34:30;;;;;;;;;;;;;;;;;;5004821;28;20014;-60
2022/08/20 09:36:56;;;;;;;;;;;;;;;;;;5003724;28;20286;-60
2022/08/20 09:39:22;;;;;;;;;;;;;;;;;;5004902;28;19925;-60
2022/08/20 09:41:48;;;;;;;;;;;;;;;;;;5004558;28;19940;-60
2022/08/20 09:44:14;;;;;;;;;;;;;;;;;;5003012;28;19956;-59
2022/08/20 09:46:40;;;;;;;;;;;;;;;;;;4997708;28;20579;-61
2022/08/20 09:49:06;;;;;;;;;;;;;;;;;;4995601;28;19933;-60
2022/08/20 09:51:32;;;;;;;;;;;;;;;;;;5002855;28;20008;-60
2022/08/20 09:53:58;;;;;;;;;;;;;;;;;;5004358;28;20383;-61
2022/08/20 09:56:24;;;;;;;;;;;;;;;;;;5003658;28;20013;-61
2022/08/20 09:58:51;;;;;;;;;;;;;;;;;;5003914;28;20005;-60
2022/08/20 10:01:17;;;;;;;;;;;;;;;;;;5001204;28;20384;-61
2022/08/20 10:03:43;;;;;;;;;;;;;;;;;;5001366;28;20021;-60
2022/08/20 10:06:10;;;;;;;;;;;;;;;;;;5002885;28;19925;-60
2022/08/20 10:08:36;;;;;;;;;;;;;;;;;;5004690;28;20334;-60
2022/08/20 10:11:02;;;;;;;;;;;;;;;;;;5002866;28;19940;-60
2022/08/20 10:13:28;;;;;;;;;;;;;;;;;;5003450;28;19972;-60
2022/08/20 10:15:54;;;;;;;;;;;;;;;;;;5004686;28;19929;-60
2022/08/20 10:18:20;;;;;;;;;;;;;;;;;;5004679;28;19930;-60
2022/08/20 10:20:46;;;;;;;;;;;;;;;;;;5003935;28;20284;-60
2022/08/20 10:23:12;;;;;;;;;;;;;;;;;;5004353;28;19925;-60
2022/08/20 10:25:38;;;;;;;;;;;;;;;;;;5004775;28;19988;-60
2022/08/20 10:28:05;;;;;;;;;;;;;;;;;;5004993;28;19925;-60
2022/08/20 10:30:31;;;;;;;;;;;;;;;;;;5004277;28;19972;-59
2022/08/20 10:32:57;;;;;;;;;;;;;;;;;;5004535;28;19961;-60
2022/08/20 10:41:30;;;;;;;;;;;;;;;;;;4999970;28;19952;-60
2022/08/20 10:44:01;;;;;;;;;;;;;;;;;;5003609;28;20384;-60
2022/08/20 10:47:09;;;;;;;;;;;;;;;;;;4998491;28;19937;-61
2022/08/20 10:49:53;;;;;;;;;;;;;;;;;;5000952;28;20450;-60
2022/08/20 10:52:19;;;;;;;;;;;;;;;;;;5000223;28;20008;-61
2022/08/20 10:54:45;;;;;;;;;;;;;;;;;;5001280;28;19933;-59
2022/08/20 10:57:11;;;;;;;;;;;;;;;;;;5001395;28;20628;-61
2022/08/20 10:59:37;;;;;;;;;;;;;;;;;;5001798;28;19929;-60
2022/08/20 11:02:03;;;;;;;;;;;;;;;;;;5000813;28;19925;-61
2022/08/20 11:04:29;;;;;;;;;;;;;;;;;;5000807;28;20243;-61
2022/08/20 11:06:55;;;;;;;;;;;;;;;;;;4999622;28;19925;-61
2022/08/20 11:09:21;;;;;;;;;;;;;;;;;;5001516;28;19929;-61
2022/08/20 11:11:47;;;;;;;;;;;;;;;;;;5000809;28;19976;-61
2022/08/20 11:14:13;;;;;;;;;;;;;;;;;;5000701;28;20035;-61
2022/08/20 11:16:39;;;;;;;;;;;;;;;;;;5001331;28;20306;-61
2022/08/20 11:19:05;;;;;;;;;;;;;;;;;;5004008;28;19972;-58
2022/08/20 11:21:31;;;;;;;;;;;;;;;;;;4998753;28;20012;-57
2022/08/20 11:23:57;;;;;;;;;;;;;;;;;;5015072;28;19935;-60
2022/08/20 11:26:23;;;;;;;;;;;;;;;;;;5006624;28;19934;-60
2022/08/20 11:28:49;;;;;;;;;;;;;;;;;;5005035;28;19984;-59
2022/08/20 11:31:15;;;;;;;;;;;;;;;;;;5000754;28;20410;-60
2022/08/20 11:33:41;;;;;;;;;;;;;;;;;;5004657;28;20024;-59
2022/08/20 11:36:07;;;;;;;;;;;;;;;;;;5000915;28;19931;-60
2022/08/20 11:38:33;;;;;;;;;;;;;;;;;;5005007;28;19926;-60
2022/08/20 11:40:59;;;;;;;;;;;;;;;;;;5000455;28;19942;-59
2022/08/20 11:43:25;;;;;;;;;;;;;;;;;;5003785;28;19932;-60
2022/08/20 11:45:51;;;;;;;;;;;;;;;;;;5005071;28;19929;-60
2022/08/20 11:48:18;;;;;;;;;;;;;;;;;;5000706;28;20643;-60
2022/08/20 11:50:44;;;;;;;;;;;;;;;;;;5003840;28;19925;-60
2022/08/20 11:53:10;;;;;;;;;;;;;;;;;;5003688;28;19925;-62
2022/08/20 11:55:36;;;;;;;;;;;;;;;;;;4998669;28;20004;-61
2022/08/20 11:58:02;;;;;;;;;;;;;;;;;;5003262;28;19926;-61
2022/08/20 12:00:28;;;;;;;;;;;;;;;;;;5002683;28;19926;-60
2022/08/20 12:02:54;;;;;;;;;;;;;;;;;;5003263;28;19972;-61
2022/08/20 12:05:20;;;;;;;;;;;;;;;;;;5001675;28;19925;-61
2022/08/20 12:07:46;;;;;;;;;;;;;;;;;;4998576;28;20208;-62
2022/08/20 12:10:12;;;;;;;;;;;;;;;;;;5002802;28;20391;-62
2022/08/20 12:12:38;;;;;;;;;;;;;;;;;;5003496;28;19925;-61
2022/08/20 12:15:04;;;;;;;;;;;;;;;;;;5006541;28;19988;-61
2022/08/20 12:17:31;;;;;;;;;;;;;;;;;;5006878;28;20461;-59
2022/08/20 12:19:57;;;;;;;;;;;;;;;;;;5005432;28;20371;-61
2022/08/20 12:22:23;;;;;;;;;;;;;;;;;;5005792;28;19965;-62
2022/08/20 12:24:49;;;;;;;;;;;;;;;;;;5005259;28;20019;-62
2022/08/20 12:27:15;;;;;;;;;;;;;;;;;;5006173;28;19933;-62
2022/08/20 12:29:41;;;;;;;;;;;;;;;;;;5004261;28;19953;-62
2022/08/20 12:32:08;;;;;;;;;;;;;;;;;;4995016;28;19930;-62
2022/08/20 12:34:34;;;;;;;;;;;;;;;;;;5005629;28;20382;-62
2022/08/20 12:37:00;;;;;;;;;;;;;;;;;;4987528;28;19929;-62
2022/08/20 12:39:30;;;;;;;;;;;;;;;;;;5005876;28;19936;-62
2022/08/20 12:41:56;;;;;;;;;;;;;;;;;;5005534;28;20008;-62
2022/08/20 12:44:22;;;;;;;;;;;;;;;;;;5005657;28;19979;-61
2022/08/20 12:46:48;;;;;;;;;;;;;;;;;;5005952;28;19929;-61
2022/08/20 12:49:14;;;;;;;;;;;;;;;;;;5002387;28;19936;-62
2022/08/20 12:51:40;;;;;;;;;;;;;;;;;;5009945;28;20626;-62
2022/08/20 12:54:06;;;;;;;;;;;;;;;;;;5003352;28;19929;-61
2022/08/20 12:56:32;;;;;;;;;;;;;;;;;;5007682;28;19976;-61
2022/08/20 12:58:58;;;;;;;;;;;;;;;;;;5006482;28;19991;-62
2022/08/20 13:01:24;;;;;;;;;;;;;;;;;;5004459;28;20402;-62
2022/08/20 13:03:50;;;;;;;;;;;;;;;;;;5004135;28;20035;-60
2022/08/20 13:06:16;;;;;;;;;;;;;;;;;;5006196;28;19935;-61
2022/08/20 13:08:42;;;;;;;;;;;;;;;;;;5006568;28;20008;-61
2022/08/20 13:11:08;;;;;;;;;;;;;;;;;;5003416;28;20396;-62
2022/08/20 13:13:34;;;;;;;;;;;;;;;;;;5010670;28;20432;-62
2022/08/20 13:16:00;;;;;;;;;;;;;;;;;;5002821;28;19930;-61
2022/08/20 13:18:26;;;;;;;;;;;;;;;;;;5006408;28;19925;-62
2022/08/20 13:20:52;;;;;;;;;;;;;;;;;;5002004;28;20019;-61
2022/08/20 13:23:18;;;;;;;;;;;;;;;;;;5013596;28;20020;-62
2022/08/20 13:25:44;;;;;;;;;;;;;;;;;;5002081;28;19949;-61
2022/08/20 13:28:10;;;;;;;;;;;;;;;;;;5006291;28;19968;-62
2022/08/20 13:30:37;;;;;;;;;;;;;;;;;;5002165;28;19983;-61
2022/08/20 13:33:03;;;;;;;;;;;;;;;;;;5002873;28;20398;-62
2022/08/20 13:35:30;;;;;;;;;;;;;;;;;;5011346;28;19936;-62
2022/08/20 13:37:56;;;;;;;;;;;;;;;;;;5012132;28;20008;-62
2022/08/20 13:40:22;;;;;;;;;;;;;;;;;;5004571;28;20020;-63
2022/08/20 13:42:48;;;;;;;;;;;;;;;;;;5005682;28;19935;-63
2022/08/20 13:45:14;;;;;;;;;;;;;;;;;;5006359;28;20443;-62
2022/08/20 13:47:40;;;;;;;;;;;;;;;;;;5002214;28;19953;-63
2022/08/20 13:50:07;;;;;;;;;;;;;;;;;;5009147;28;20003;-62
2022/08/20 13:52:33;;;;;;;;;;;;;;;;;;5002148;28;20450;-63
2022/08/20 13:54:59;;;;;;;;;;;;;;;;;;5009642;28;20174;-60
2022/08/20 13:57:25;;;;;;;;;;;;;;;;;;4984273;28;19999;-60
2022/08/20 13:59:51;;;;;;;;;;;;;;;;;;5001367;28;20020;-60
2022/08/20 14:02:17;;;;;;;;;;;;;;;;;;5004015;28;19929;-60
2022/08/20 14:04:43;;;;;;;;;;;;;;;;;;5006004;28;19934;-61
2022/08/20 14:07:09;;;;;;;;;;;;;;;;;;5002200;28;19937;-62
2022/08/20 14:09:35;;;;;;;;;;;;;;;;;;5013518;28;20533;-60
2022/08/20 14:12:01;;;;;;;;;;;;;;;;;;5005586;28;19929;-61
2022/08/20 14:14:27;;;;;;;;;;;;;;;;;;5004952;28;19936;-61
2022/08/20 14:16:53;;;;;;;;;;;;;;;;;;5001668;28;19937;-60
2022/08/20 14:19:19;;;;;;;;;;;;;;;;;;4987466;28;20540;-61
2022/08/20 14:21:45;;;;;;;;;;;;;;;;;;5001140;28;19929;-63
2022/08/20 14:24:11;;;;;;;;;;;;;;;;;;4993158;28;19936;-63
2022/08/20 14:26:37;;;;;;;;;;;;;;;;;;5006094;28;20346;-63
2022/08/20 14:29:03;;;;;;;;;;;;;;;;;;5001424;28;19929;-63
2022/08/20 14:31:29;;;;;;;;;;;;;;;;;;5001216;28;19929;-61
2022/08/20 14:33:55;;;;;;;;;;;;;;;;;;5000322;28;19930;-61
2022/08/20 14:36:21;;;;;;;;;;;;;;;;;;5001950;28;19925;-60
2022/08/20 14:38:47;;;;;;;;;;;;;;;;;;5005762;28;19925;-61
2022/08/20 14:41:13;;;;;;;;;;;;;;;;;;5004697;28;19937;-61
2022/08/20 14:43:39;;;;;;;;;;;;;;;;;;5004313;28;19960;-64
2022/08/20 14:46:05;;;;;;;;;;;;;;;;;;5003569;28;19925;-60
2022/08/20 14:48:31;;;;;;;;;;;;;;;;;;5001800;28;19935;-61
2022/08/20 14:50:59;;;;;;;;;;;;;;;;;;5004782;28;19922;-61
2022/08/20 14:53:25;;;;;;;;;;;;;;;;;;5006038;28;19982;-61
2022/08/20 14:55:51;;;;;;;;;;;;;;;;;;5001418;28;19929;-61
2022/08/20 14:58:17;;;;;;;;;;;;;;;;;;5005171;28;19948;-62
2022/08/20 15:00:43;;;;;;;;;;;;;;;;;;5000609;28;19930;-62
2022/08/20 15:03:09;;;;;;;;;;;;;;;;;;5004361;28;19933;-63
2022/08/20 15:05:35;;;;;;;;;;;;;;;;;;5000811;28;19973;-62
2022/08/20 15:08:01;;;;;;;;;;;;;;;;;;5009236;28;19982;-62
2022/08/20 15:10:27;;;;;;;;;;;;;;;;;;5002211;28;19955;-61
2022/08/20 15:12:53;;;;;;;;;;;;;;;;;;5004440;28;19980;-62
2022/08/20 15:15:19;;;;;;;;;;;;;;;;;;4996788;28;19999;-62
2022/08/20 15:17:45;;;;;;;;;;;;;;;;;;5001204;28;19930;-61
2022/08/20 15:20:11;;;;;;;;;;;;;;;;;;5000553;28;19952;-61
2022/08/20 15:22:37;;;;;;;;;;;;;;;;;;5005058;28;19929;-61
2022/08/20 15:25:03;;;;;;;;;;;;;;;;;;5012337;28;19925;-61
2022/08/20 15:27:29;;;;;;;;;;;;;;;;;;5002163;28;19980;-61
2022/08/20 15:29:55;;;;;;;;;;;;;;;;;;4998761;28;19965;-61
2022/08/20 15:32:21;;;;;;;;;;;;;;;;;;5002264;28;20008;-59
2022/08/20 15:34:47;;;;;;;;;;;;;;;;;;5002228;28;20016;-61
2022/08/20 15:37:13;;;;;;;;;;;;;;;;;;5002926;28;19929;-61
2022/08/20 15:39:40;;;;;;;;;;;;;;;;;;5002572;28;19971;-62
2022/08/20 15:42:06;;;;;;;;;;;;;;;;;;5002914;28;19934;-61
2022/08/20 15:44:32;;;;;;;;;;;;;;;;;;5002848;28;19929;-62
2022/08/20 15:46:58;;;;;;;;;;;;;;;;;;5002923;28;19929;-62
2022/08/20 15:49:24;;;;;;;;;;;;;;;;;;5004179;28;19925;-61
2022/08/20 15:51:50;;;;;;;;;;;;;;;;;;5006212;28;20291;-61
2022/08/20 15:54:16;;;;;;;;;;;;;;;;;;5006276;28;19933;-61
2022/08/20 15:56:42;;;;;;;;;;;;;;;;;;5006961;28;19961;-62
2022/08/20 15:59:08;;;;;;;;;;;;;;;;;;4989777;28;19988;-61
2022/08/20 16:01:34;;;;;;;;;;;;;;;;;;5006825;28;19925;-62
2022/08/20 16:04:00;;;;;;;;;;;;;;;;;;5006445;28;20306;-62
2022/08/20 16:06:26;;;;;;;;;;;;;;;;;;5005709;28;19937;-62
2022/08/20 16:08:52;;;;;;;;;;;;;;;;;;5006717;28;19930;-62
2022/08/20 16:11:18;;;;;;;;;;;;;;;;;;5001549;28;19929;-62
2022/08/20 16:13:44;;;;;;;;;;;;;;;;;;5000418;28;20152;-62
2022/08/20 16:16:10;;;;;;;;;;;;;;;;;;5011905;28;19934;-63
2022/08/20 16:18:36;;;;;;;;;;;;;;;;;;5004460;28;19944;-63
2022/08/20 16:21:02;;;;;;;;;;;;;;;;;;5007029;28;20492;-63
2022/08/20 16:23:28;;;;;;;;;;;;;;;;;;5003926;28;20133;-62
2022/08/20 16:25:54;;;;;;;;;;;;;;;;;;5003278;28;20398;-62
2022/08/20 16:28:21;;;;;;;;;;;;;;;;;;5003638;28;19926;-61
2022/08/20 16:30:47;;;;;;;;;;;;;;;;;;5011497;28;20091;-62
2022/08/20 16:33:13;;;;;;;;;;;;;;;;;;5002619;28;20410;-62
2022/08/20 16:35:39;;;;;;;;;;;;;;;;;;5003261;28;19922;-62
2022/08/20 16:38:05;;;;;;;;;;;;;;;;;;5005649;28;19933;-61
2022/08/20 16:40:31;;;;;;;;;;;;;;;;;;5006843;28;20408;-62
2022/08/20 16:42:57;;;;;;;;;;;;;;;;;;5003847;28;19933;-61
2022/08/20 16:45:23;;;;;;;;;;;;;;;;;;5003780;28;19930;-61
2022/08/20 16:47:49;;;;;;;;;;;;;;;;;;5003489;28;19933;-61